Time;durP1;ratioP1;P1;durP2;ratioP2;P2;SDS_P1;SDS_P2;PMS_P1;PMS_P2;Temp;Humidity;BMP_temperature;BMP_pressure;BME280_temperature;BME280_humidity;BME280_pressure;Samples;Min_cycle;Max_cycle;Signal;HPM_P1;HPM_P2
2022/07/14 00:01:38;;;;;;;11.60;2.50;;;15.00;99.90;;;;;;5122191;28;20054;-57
2022/07/14 00:04:05;;;;;;;10.23;2.70;;;15.00;99.90;;;;;;5102995;28;20043;-58
2022/07/14 00:06:31;;;;;;;11.73;2.70;;;15.20;99.90;;;;;;5098392;28;20043;-58
2022/07/14 00:08:57;;;;;;;11.68;2.80;;;14.90;99.90;;;;;;5097997;28;20043;-58
2022/07/14 00:11:22;;;;;;;15.00;3.45;;;14.90;99.90;;;;;;5100172;28;20531;-58
2022/07/14 00:13:48;;;;;;;9.38;2.78;;;14.90;99.90;;;;;;5101769;28;20035;-58
2022/07/14 00:16:14;;;;;;;12.20;2.88;;;14.90;99.90;;;;;;5102487;28;20479;-58
2022/07/14 00:18:43;;;;;;;13.52;2.63;;;14.80;99.90;;;;;;5100470;28;20150;-58
2022/07/14 00:21:15;;;;;;;13.20;3.25;;;14.70;99.90;;;;;;5082975;28;20052;-57
2022/07/14 00:23:42;;;;;;;12.50;3.00;;;14.60;99.90;;;;;;5101531;28;20032;-59
2022/07/14 00:26:08;;;;;;;13.80;3.15;;;14.60;99.90;;;;;;5082580;28;20039;-57
2022/07/14 00:28:34;;;;;;;10.25;3.00;;;14.70;99.90;;;;;;5101421;28;20119;-57
2022/07/14 00:31:03;;;;;;;12.15;2.70;;;14.70;99.90;;;;;;5101487;28;20055;-58
2022/07/14 00:33:33;;;;;;;10.70;3.05;;;14.60;99.90;;;;;;5100413;28;20054;-57
2022/07/14 00:35:59;;;;;;;12.82;3.25;;;14.60;99.90;;;;;;5100513;28;20446;-57
2022/07/14 00:38:24;;;;;;;14.90;3.00;;;14.70;99.90;;;;;;5101097;28;20092;-56
2022/07/14 00:40:50;;;;;;;11.18;3.03;;;14.70;99.90;;;;;;5100907;28;20048;-59
2022/07/14 00:43:16;;;;;;;9.98;2.63;;;14.60;99.90;;;;;;5102708;28;20100;-58
2022/07/14 00:45:42;;;;;;;8.70;2.53;;;14.60;99.90;;;;;;5105210;28;20881;-58
2022/07/14 00:48:08;;;;;;;12.05;3.40;;;14.50;99.90;;;;;;5103564;28;20046;-57
2022/07/14 00:50:33;;;;;;;11.95;2.92;;;14.50;99.90;;;;;;5103974;28;20039;-57
2022/07/14 00:53:07;;;;;;;9.43;2.92;;;14.40;99.90;;;;;;5104342;28;20052;-59
2022/07/14 00:55:33;;;;;;;11.93;3.03;;;14.40;99.90;;;;;;5104443;28;20086;-59
2022/07/14 00:57:59;;;;;;;11.63;3.03;;;14.30;99.90;;;;;;5104614;28;20082;-58
2022/07/14 01:00:24;;;;;;;14.27;3.38;;;14.20;99.90;;;;;;5085688;28;20047;-57
2022/07/14 01:02:50;;;;;;;12.23;3.00;;;14.20;99.90;;;;;;5104711;28;20040;-58
2022/07/14 01:05:17;;;;;;;11.43;2.60;;;14.30;99.90;;;;;;5103581;28;20122;-58
2022/07/14 01:07:43;;;;;;;9.25;2.95;;;14.30;99.90;;;;;;5115611;27;20132;-57
2022/07/14 01:10:09;;;;;;;9.48;3.00;;;14.20;99.90;;;;;;5104354;27;20492;-59
2022/07/14 01:12:36;;;;;;;10.15;3.17;;;14.10;99.90;;;;;;5104298;28;20271;-58
2022/07/14 01:15:03;;;;;;;9.10;2.72;;;14.10;99.90;;;;;;5073383;22;20056;-58
2022/07/14 01:17:28;;;;;;;11.68;3.33;;;14.10;99.90;;;;;;5037272;28;20119;-58
2022/07/14 01:19:55;;;;;;;11.13;2.90;;;14.10;99.90;;;;;;5039748;28;20132;-58
2022/07/14 01:22:21;;;;;;;12.05;3.25;;;14.10;99.90;;;;;;5023697;28;20404;-56
2022/07/14 01:24:47;;;;;;;11.82;3.03;;;14.10;99.90;;;;;;5024002;28;20049;-58
2022/07/14 01:27:12;;;;;;;10.82;3.10;;;14.10;99.90;;;;;;5023844;28;20068;-56
2022/07/14 01:29:38;;;;;;;9.60;3.30;;;14.10;99.90;;;;;;5023902;28;20052;-58
2022/07/14 01:32:04;;;;;;;10.52;3.08;;;14.00;99.90;;;;;;5023760;28;20068;-58
2022/07/14 01:34:30;;;;;;;13.88;3.25;;;14.00;99.90;;;;;;5022913;28;20053;-58
2022/07/14 01:36:56;;;;;;;13.23;3.42;;;14.00;99.90;;;;;;5023310;28;20128;-57
2022/07/14 01:39:21;;;;;;;13.20;3.47;;;13.80;99.90;;;;;;5021889;28;20124;-58
2022/07/14 01:41:47;;;;;;;12.10;3.33;;;13.90;99.90;;;;;;5023713;28;20037;-57
2022/07/14 01:44:13;;;;;;;11.60;3.85;;;13.90;99.90;;;;;;5023428;28;20120;-58
2022/07/14 01:46:39;;;;;;;12.32;3.20;;;13.80;99.90;;;;;;5023355;28;20116;-57
2022/07/14 01:49:05;;;;;;;13.45;3.63;;;13.80;99.90;;;;;;5023202;28;20045;-57
2022/07/14 01:51:31;;;;;;;14.05;4.00;;;13.90;99.90;;;;;;5023221;28;20088;-57
2022/07/14 01:53:57;;;;;;;10.80;3.58;;;13.80;99.90;;;;;;5022665;28;20081;-57
2022/07/14 01:56:23;;;;;;;10.35;3.50;;;13.70;99.90;;;;;;5023158;28;20037;-57
2022/07/14 01:58:49;;;;;;;11.45;3.65;;;13.80;99.90;;;;;;5023219;28;20360;-58
2022/07/14 02:04:04;;;;;;;10.10;3.17;;;13.70;99.90;;;;;;5022335;28;20049;-58
2022/07/14 02:06:30;;;;;;;13.48;3.42;;;13.70;99.90;;;;;;5025581;28;20059;-58
2022/07/14 02:08:56;;;;;;;9.63;3.53;;;13.70;99.90;;;;;;5031180;28;20125;-53
2022/07/14 02:14:06;;;;;;;7.93;3.53;;;13.70;99.90;;;;;;5022839;28;20057;-57
2022/07/14 02:16:32;;;;;;;11.88;3.88;;;13.60;99.90;;;;;;5022114;28;20045;-58
2022/07/14 02:18:59;;;;;;;11.30;3.30;;;13.60;99.90;;;;;;5022080;28;20490;-57
2022/07/14 02:21:26;;;;;;;19.17;3.63;;;13.60;99.90;;;;;;5022802;28;20053;-58
2022/07/14 02:23:51;;;;;;;13.20;3.28;;;13.60;99.90;;;;;;5022528;28;20034;-57
2022/07/14 02:26:17;;;;;;;9.25;3.20;;;13.60;99.90;;;;;;5022365;28;20045;-56
2022/07/14 02:28:43;;;;;;;10.07;3.22;;;13.60;99.90;;;;;;5023101;28;20124;-56
2022/07/14 02:31:10;;;;;;;14.18;3.03;;;13.40;99.90;;;;;;5022600;28;20381;-56
2022/07/14 02:33:37;;;;;;;10.48;3.58;;;13.30;99.90;;;;;;5021213;28;20095;-55
2022/07/14 02:36:03;;;;;;;12.95;3.35;;;13.40;99.90;;;;;;5020929;28;20033;-55
2022/07/14 02:38:29;;;;;;;11.35;3.38;;;13.40;99.90;;;;;;5022390;28;20530;-55
2022/07/14 02:40:55;;;;;;;10.50;3.40;;;13.40;99.90;;;;;;5022258;28;20076;-55
2022/07/14 02:43:21;;;;;;;12.25;3.25;;;13.30;99.90;;;;;;5021419;28;20037;-56
2022/07/14 02:45:46;;;;;;;11.82;3.92;;;13.30;99.90;;;;;;5022405;28;20045;-56
2022/07/14 02:48:12;;;;;;;7.78;3.25;;;13.30;99.90;;;;;;5022849;28;20033;-56
2022/07/14 02:50:38;;;;;;;12.57;3.58;;;13.30;99.90;;;;;;5036141;28;20049;-56
2022/07/14 02:53:04;;;;;;;11.43;3.30;;;13.20;99.90;;;;;;5022133;28;20041;-56
2022/07/14 02:55:30;;;;;;;8.98;3.15;;;13.20;99.90;;;;;;5021931;28;20049;-56
2022/07/14 02:57:56;;;;;;;8.50;3.60;;;13.10;99.90;;;;;;5022071;28;20115;-56
2022/07/14 03:00:22;;;;;;;10.43;2.90;;;13.00;99.90;;;;;;5021168;28;20500;-55
2022/07/14 03:02:47;;;;;;;10.75;4.05;;;13.00;99.90;;;;;;5022122;28;20052;-55
2022/07/14 03:05:14;;;;;;;11.38;3.47;;;13.00;99.90;;;;;;5021373;28;20030;-56
2022/07/14 03:07:41;;;;;;;13.95;3.70;;;13.00;99.90;;;;;;5032160;28;20098;-55
2022/07/14 03:10:07;;;;;;;13.80;4.30;;;13.00;99.90;;;;;;5022287;28;20045;-55
2022/07/14 03:12:33;;;;;;;10.50;3.53;;;12.90;99.90;;;;;;5022009;28;20049;-55
2022/07/14 03:15:00;;;;;;;10.00;3.78;;;12.90;99.90;;;;;;5020548;28;20072;-54
2022/07/14 03:17:26;;;;;;;8.07;3.50;;;12.80;99.90;;;;;;5021479;28;20064;-55
2022/07/14 03:19:52;;;;;;;8.98;3.53;;;12.80;99.90;;;;;;5021606;28;20175;-55
2022/07/14 03:22:18;;;;;;;11.90;4.07;;;12.90;99.90;;;;;;5021349;28;20450;-55
2022/07/14 03:24:44;;;;;;;12.02;3.90;;;12.80;99.90;;;;;;5021780;28;20140;-55
2022/07/14 03:27:10;;;;;;;8.93;3.88;;;12.80;99.90;;;;;;5020807;28;20038;-55
2022/07/14 03:29:39;;;;;;;12.20;4.07;;;12.90;99.90;;;;;;5036784;28;20049;-55
2022/07/14 03:32:05;;;;;;;11.85;4.15;;;12.80;99.90;;;;;;5021644;28;20042;-55
2022/07/14 03:34:31;;;;;;;12.43;4.10;;;12.80;99.90;;;;;;5020726;28;20037;-53
2022/07/14 03:36:57;;;;;;;10.50;4.00;;;12.70;99.90;;;;;;5036288;28;20050;-56
2022/07/14 03:39:23;;;;;;;11.75;4.38;;;12.70;99.90;;;;;;5021473;28;20045;-55
2022/07/14 03:41:48;;;;;;;10.88;4.30;;;12.70;99.90;;;;;;5020306;28;20041;-55
2022/07/14 03:44:14;;;;;;;11.88;4.60;;;12.50;99.90;;;;;;5021208;28;20041;-56
2022/07/14 03:46:40;;;;;;;9.88;4.10;;;12.50;99.90;;;;;;5021322;28;20396;-54
2022/07/14 03:49:05;;;;;;;10.90;4.38;;;12.50;99.90;;;;;;5020884;28;20140;-54
2022/07/14 03:51:31;;;;;;;11.30;4.50;;;12.50;99.90;;;;;;5021241;28;20484;-55
2022/07/14 03:53:57;;;;;;;11.98;4.32;;;12.40;99.90;;;;;;5036067;28;20593;-56
2022/07/14 03:56:23;;;;;;;14.82;4.47;;;12.40;99.90;;;;;;5021230;28;20049;-54
2022/07/14 03:58:49;;;;;;;10.98;4.63;;;12.40;99.90;;;;;;5021707;28;20064;-54
2022/07/14 04:01:14;;;;;;;9.40;4.78;;;12.40;99.90;;;;;;5022168;28;20459;-55
2022/07/14 04:03:40;;;;;;;11.48;4.55;;;12.30;99.90;;;;;;5020183;28;20069;-54
2022/07/14 04:06:06;;;;;;;12.57;5.00;;;12.20;99.90;;;;;;5023358;28;20059;-55
2022/07/14 04:08:31;;;;;;;10.85;4.95;;;12.20;99.90;;;;;;5030431;28;20431;-54
2022/07/14 04:10:57;;;;;;;9.93;4.25;;;12.30;99.90;;;;;;5021242;28;20103;-55
2022/07/14 04:13:22;;;;;;;16.70;5.57;;;12.30;99.90;;;;;;5020344;28;20658;-55
2022/07/14 04:15:48;;;;;;;13.10;4.97;;;12.30;99.90;;;;;;5021101;28;20079;-55
2022/07/14 04:18:14;;;;;;;11.35;4.63;;;12.20;99.90;;;;;;5022935;28;20120;-55
2022/07/14 04:20:46;;;;;;;13.55;5.55;;;12.30;99.90;;;;;;5024481;28;20111;-53
2022/07/14 04:23:11;;;;;;;13.65;4.93;;;12.40;99.90;;;;;;5025318;28;20060;-54
2022/07/14 04:25:37;;;;;;;12.85;4.80;;;12.50;99.90;;;;;;5039964;28;20042;-55
2022/07/14 04:28:03;;;;;;;10.98;4.95;;;12.60;99.90;;;;;;5023896;28;20507;-55
2022/07/14 04:30:28;;;;;;;12.52;5.30;;;12.60;99.90;;;;;;5024032;28;20531;-53
2022/07/14 04:32:54;;;;;;;17.25;4.85;;;12.70;99.90;;;;;;5040284;28;20073;-55
2022/07/14 04:35:20;;;;;;;10.98;4.55;;;12.70;99.90;;;;;;5023822;28;20049;-55
2022/07/14 04:37:45;;;;;;;13.90;5.25;;;12.90;99.90;;;;;;5025092;28;20049;-54
2022/07/14 04:40:11;;;;;;;14.75;4.78;;;13.00;99.90;;;;;;5024453;28;20042;-54
2022/07/14 04:42:37;;;;;;;11.00;4.47;;;13.10;99.90;;;;;;5024490;28;20415;-55
2022/07/14 04:45:03;;;;;;;11.80;4.97;;;13.00;99.90;;;;;;5039996;28;20041;-55
2022/07/14 04:47:28;;;;;;;11.15;4.93;;;13.10;99.90;;;;;;5023955;28;20478;-55
2022/07/14 04:52:48;;;;;;;10.30;4.27;;;13.30;99.90;;;;;;5024587;28;20045;-55
2022/07/14 04:55:15;;;;;;;13.60;4.32;;;13.50;99.90;;;;;;5024869;28;20280;-55
2022/07/14 04:57:42;;;;;;;10.60;4.57;;;14.10;99.90;;;;;;5024747;28;20049;-52
2022/07/14 05:00:09;;;;;;;12.70;4.00;;;14.30;99.90;;;;;;5024562;28;20077;-56
2022/07/14 05:02:35;;;;;;;11.48;4.10;;;14.80;99.90;;;;;;5023775;28;20077;-56
2022/07/14 05:05:02;;;;;;;8.15;4.00;;;15.40;99.90;;;;;;5023745;28;20820;-55
2022/07/14 05:07:28;;;;;;;10.18;3.65;;;15.70;99.90;;;;;;5032580;28;20414;-55
2022/07/14 05:09:53;;;;;;;9.02;3.55;;;16.00;99.90;;;;;;5026809;28;20056;-56
2022/07/14 05:12:19;;;;;;;9.90;3.60;;;16.50;99.90;;;;;;5023479;28;20395;-55
2022/07/14 05:14:45;;;;;;;11.93;3.90;;;16.50;99.90;;;;;;5024279;28;20061;-55
2022/07/14 05:17:11;;;;;;;10.05;3.45;;;16.90;99.90;;;;;;5024031;28;20479;-55
2022/07/14 05:19:37;;;;;;;10.45;3.83;;;16.90;99.90;;;;;;5022443;28;20049;-55
2022/07/14 05:22:03;;;;;;;11.80;3.40;;;16.90;99.90;;;;;;5023769;28;20128;-56
2022/07/14 05:24:29;;;;;;;10.15;3.15;;;17.40;99.90;;;;;;5023855;28;20116;-55
2022/07/14 05:26:58;;;;;;;8.90;3.00;;;17.40;99.90;;;;;;5023951;28;20179;-54
2022/07/14 05:29:23;;;;;;;12.50;3.63;;;17.50;99.90;;;;;;5022728;28;20137;-56
2022/07/14 05:31:50;;;;;;;9.18;2.63;;;17.70;99.90;;;;;;5023789;28;20144;-56
2022/07/14 05:34:15;;;;;;;13.18;3.53;;;18.00;99.90;;;;;;5022786;28;20114;-55
2022/07/14 05:36:41;;;;;;;9.65;2.78;;;18.10;99.90;;;;;;5023633;28;20042;-55
2022/07/14 05:39:07;;;;;;;10.10;3.22;;;18.10;99.90;;;;;;5038184;28;20052;-58
2022/07/14 05:41:32;;;;;;;8.65;2.92;;;18.60;99.90;;;;;;5023655;28;20053;-56
2022/07/14 05:43:58;;;;;;;10.40;2.90;;;18.70;99.90;;;;;;5023438;28;20045;-55
2022/07/14 05:46:24;;;;;;;11.38;2.78;;;18.30;99.90;;;;;;5023047;28;20091;-55
2022/07/14 05:48:49;;;;;;;9.05;2.30;;;18.20;99.90;;;;;;5022640;28;20067;-55
2022/07/14 05:51:17;;;;;;;13.52;3.17;;;18.50;99.90;;;;;;5023899;28;20625;-55
2022/07/14 05:53:45;;;;;;;10.73;2.22;;;18.70;99.90;;;;;;5023897;28;20088;-57
2022/07/14 05:56:11;;;;;;;7.75;2.17;;;18.80;99.90;;;;;;5023148;28;20041;-55
2022/07/14 05:58:38;;;;;;;6.85;2.25;;;18.40;99.90;;;;;;5023126;28;20049;-56
2022/07/14 06:01:05;;;;;;;9.23;2.20;;;18.20;99.90;;;;;;5023070;28;20045;-56
2022/07/14 06:03:31;;;;;;;8.10;2.67;;;18.70;99.90;;;;;;5022651;28;20059;-55
2022/07/14 06:06:05;;;;;;;9.10;2.30;;;18.80;99.90;;;;;;5022985;28;20050;-55
2022/07/14 06:08:32;;;;;;;6.32;2.20;;;19.10;99.90;;;;;;5032419;28;20430;-55
2022/07/14 06:10:58;;;;;;;7.95;2.00;;;19.30;99.90;;;;;;5022777;28;20053;-55
2022/07/14 06:13:26;;;;;;;9.10;2.50;;;19.40;99.90;;;;;;5022338;28;20735;-56
2022/07/14 06:15:52;;;;;;;9.73;2.20;;;19.90;99.90;;;;;;5022814;28;20071;-54
2022/07/14 06:18:19;;;;;;;10.25;1.98;;;19.60;99.90;;;;;;5021746;28;20049;-55
2022/07/14 06:20:44;;;;;;;7.65;1.90;;;19.70;99.90;;;;;;5022500;28;20504;-55
2022/07/14 06:23:10;;;;;;;8.45;1.70;;;19.80;99.90;;;;;;5022637;28;20042;-55
2022/07/14 06:25:37;;;;;;;10.50;2.08;;;19.40;99.90;;;;;;5022506;28;20083;-55
2022/07/14 06:28:05;;;;;;;7.05;1.20;;;20.00;99.90;;;;;;5022777;28;20056;-55
2022/07/14 06:30:31;;;;;;;6.55;1.17;;;20.10;99.90;;;;;;5020434;28;20125;-56
2022/07/14 06:32:58;;;;;;;7.40;1.33;;;20.40;99.90;;;;;;5036963;28;20449;-56
2022/07/14 06:35:24;;;;;;;5.68;1.33;;;20.60;99.90;;;;;;5022073;28;20049;-55
2022/07/14 06:37:53;;;;;;;6.22;0.98;;;20.30;99.90;;;;;;5022280;28;20044;-56
2022/07/14 06:40:19;;;;;;;3.42;0.75;;;19.90;99.90;;;;;;5021099;28;20054;-55
2022/07/14 06:42:45;;;;;;;4.68;1.00;;;19.60;99.90;;;;;;5022861;28;20037;-55
2022/07/14 06:45:11;;;;;;;4.32;1.00;;;20.00;99.90;;;;;;5022686;28;20053;-56
2022/07/14 06:47:37;;;;;;;4.28;0.90;;;20.40;99.90;;;;;;5021432;28;20045;-56
2022/07/14 06:50:04;;;;;;;4.50;1.10;;;20.20;99.90;;;;;;5021831;28;20046;-55
2022/07/14 06:52:29;;;;;;;5.20;1.10;;;20.00;99.90;;;;;;5020646;28;20038;-56
2022/07/14 06:54:58;;;;;;;5.70;1.02;;;20.70;99.90;;;;;;5022244;28;20046;-55
2022/07/14 06:57:24;;;;;;;8.18;1.38;;;20.30;99.90;;;;;;5021691;28;20049;-56
2022/07/14 06:59:50;;;;;;;5.93;0.93;;;20.40;99.90;;;;;;5022041;28;20050;-56
2022/07/14 07:02:16;;;;;;;4.68;0.90;;;20.00;99.90;;;;;;5021809;28;20049;-56
2022/07/14 07:04:41;;;;;;;4.78;0.93;;;20.60;99.90;;;;;;5021161;28;20043;-55
2022/07/14 07:07:07;;;;;;;4.03;1.13;;;20.40;99.90;;;;;;5027777;28;20037;-56
2022/07/14 07:09:33;;;;;;;4.45;0.63;;;20.70;99.90;;;;;;5027130;28;20078;-55
2022/07/14 07:11:58;;;;;;;3.70;0.70;;;20.80;99.90;;;;;;5022046;28;20041;-55
2022/07/14 07:14:24;;;;;;;3.72;0.93;;;20.60;99.90;;;;;;5020967;28;20526;-56
2022/07/14 07:16:50;;;;;;;3.05;0.70;;;20.80;99.90;;;;;;5021812;28;20053;-56
2022/07/14 07:19:17;;;;;;;3.65;1.00;;;20.90;99.90;;;;;;5021046;28;20053;-57
2022/07/14 07:21:42;;;;;;;5.85;1.05;;;21.40;99.90;;;;;;5022358;28;20408;-56
2022/07/14 07:24:09;;;;;;;4.93;0.80;;;21.80;99.90;;;;;;5021489;28;20041;-56
2022/07/14 07:26:37;;;;;;;6.57;0.93;;;21.70;99.90;;;;;;5021808;28;20045;-56
2022/07/14 07:29:04;;;;;;;3.20;0.80;;;21.60;99.90;;;;;;5051238;28;20032;-56
2022/07/14 07:31:31;;;;;;;4.10;0.70;;;21.50;99.90;;;;;;5061215;28;20119;-56
2022/07/14 07:33:57;;;;;;;2.50;0.80;;;21.60;99.90;;;;;;5060793;28;20709;-57
2022/07/14 07:36:23;;;;;;;3.97;0.80;;;21.60;99.90;;;;;;5061248;28;20051;-55
2022/07/14 07:38:49;;;;;;;4.55;0.90;;;22.00;99.90;;;;;;5061430;28;20506;-56
2022/07/14 07:41:14;;;;;;;6.97;1.00;;;21.40;99.90;;;;;;5061226;28;20052;-56
2022/07/14 07:43:40;;;;;;;6.60;0.77;;;21.30;99.90;;;;;;5061162;28;20036;-57
2022/07/14 07:46:07;;;;;;;6.15;1.30;;;21.50;99.90;;;;;;5061391;28;20040;-57
2022/07/14 07:48:33;;;;;;;4.40;0.90;;;21.50;99.90;;;;;;5051592;28;20407;-56
2022/07/14 07:50:59;;;;;;;4.00;0.60;;;20.90;99.90;;;;;;5045975;28;20119;-56
2022/07/14 07:53:25;;;;;;;4.95;0.63;;;21.20;99.90;;;;;;5045089;28;20049;-57
2022/07/14 07:55:51;;;;;;;2.60;0.65;;;21.40;99.90;;;;;;5045436;28;20534;-56
2022/07/14 07:58:18;;;;;;;3.13;0.82;;;21.50;99.90;;;;;;5044400;28;20056;-56
2022/07/14 08:00:44;;;;;;;2.00;0.43;;;21.50;99.90;;;;;;5044229;28;20084;-56
2022/07/14 08:03:10;;;;;;;3.05;0.60;;;21.10;99.90;;;;;;5060948;28;20135;-57
2022/07/14 08:05:35;;;;;;;3.53;0.70;;;21.10;99.90;;;;;;5049730;28;20419;-56
2022/07/14 08:08:01;;;;;;;4.35;0.80;;;21.00;99.90;;;;;;5035436;28;20044;-56
2022/07/14 08:10:27;;;;;;;2.50;0.57;;;20.60;99.90;;;;;;5044607;28;20053;-56
2022/07/14 08:12:53;;;;;;;3.03;0.65;;;20.40;99.90;;;;;;5054326;28;20482;-56
2022/07/14 08:15:19;;;;;;;2.65;0.63;;;20.40;99.90;;;;;;5064104;28;20049;-56
2022/07/14 08:17:44;;;;;;;3.15;0.63;;;20.40;99.90;;;;;;5063868;28;20048;-53
2022/07/14 08:20:12;;;;;;;4.63;0.65;;;20.20;99.90;;;;;;5064783;28;20052;-56
2022/07/14 08:22:38;;;;;;;3.50;0.70;;;20.30;99.90;;;;;;5064255;28;20457;-56
2022/07/14 08:25:06;;;;;;;3.97;0.70;;;20.50;99.90;;;;;;5044063;28;20057;-57
2022/07/14 08:27:32;;;;;;;2.67;0.50;;;20.80;99.90;;;;;;5044344;28;20040;-56
2022/07/14 08:29:59;;;;;;;2.10;0.60;;;20.40;99.90;;;;;;5044186;28;20032;-57
2022/07/14 08:32:41;;;;;;;4.20;1.08;;;21.00;99.90;;;;;;5044127;28;20056;-55
2022/07/14 08:35:09;;;;;;;4.57;0.75;;;20.80;99.90;;;;;;5044232;28;20048;-57
2022/07/14 08:37:36;;;;;;;4.88;0.73;;;19.80;99.90;;;;;;5044507;28;20053;-56
2022/07/14 08:40:06;;;;;;;4.63;0.60;;;19.90;99.90;;;;;;5044364;28;20045;-56
2022/07/14 08:42:32;;;;;;;2.22;0.60;;;20.50;99.90;;;;;;5044280;28;20090;-59
2022/07/14 08:44:59;;;;;;;4.32;0.60;;;20.50;99.90;;;;;;5044271;28;20045;-55
2022/07/14 08:47:25;;;;;;;3.10;0.50;;;20.60;99.90;;;;;;5043924;28;20063;-56
2022/07/14 08:49:52;;;;;;;2.97;0.60;;;20.40;99.90;;;;;;5044011;28;20458;-55
2022/07/14 08:52:18;;;;;;;4.93;0.73;;;20.40;99.90;;;;;;5044099;28;20048;-56
2022/07/14 08:54:47;;;;;;;3.42;0.70;;;20.40;99.90;;;;;;5044597;28;20055;-55
2022/07/14 08:57:13;;;;;;;2.70;0.60;;;20.80;99.90;;;;;;5044708;28;20077;-57
2022/07/14 08:59:40;;;;;;;5.55;0.70;;;21.10;99.90;;;;;;5043597;28;20037;-57
2022/07/14 09:02:06;;;;;;;3.78;0.70;;;21.30;99.90;;;;;;5044016;28;20081;-56
2022/07/14 09:04:32;;;;;;;2.00;0.40;;;21.30;99.90;;;;;;5042550;28;20037;-56
2022/07/14 09:06:58;;;;;;;1.27;0.40;;;21.30;99.90;;;;;;5037162;28;20064;-58
2022/07/14 09:09:34;;;;;;;2.30;0.60;;;21.40;99.90;;;;;;5030790;28;20125;-56
2022/07/14 09:12:06;;;;;;;3.85;0.70;;;21.40;99.90;;;;;;5024343;28;20041;-58
2022/07/14 09:17:25;;;;;;;121.97;6.05;;;20.80;99.90;;;;;;5022885;28;20053;-56
2022/07/14 09:20:11;;;;;;;65.20;4.38;;;20.80;99.90;;;;;;5023657;28;20143;-56
2022/07/14 09:22:38;;;;;;;3.78;0.73;;;20.50;99.90;;;;;;5023917;28;20053;-56
2022/07/14 09:25:08;;;;;;;2.17;0.60;;;20.50;99.90;;;;;;5023921;28;20087;-56
2022/07/14 09:27:35;;;;;;;2.75;0.70;;;20.20;99.90;;;;;;5047512;28;20044;-57
2022/07/14 09:30:02;;;;;;;1.60;0.55;;;20.20;99.90;;;;;;5053032;28;20644;-56
2022/07/14 09:33:04;;;;;;;2.00;0.80;;;20.20;99.90;;;;;;5051359;28;20041;-57
2022/07/14 09:35:33;;;;;;;2.65;0.70;;;20.80;99.90;;;;;;5010154;28;20052;-57
2022/07/14 09:37:59;;;;;;;4.00;0.75;;;21.20;99.90;;;;;;5052522;28;20052;-57
2022/07/14 09:40:28;;;;;;;3.42;0.57;;;21.30;99.90;;;;;;5059470;28;20048;-58
2022/07/14 09:43:00;;;;;;;3.30;1.05;;;21.70;99.90;;;;;;5063501;28;20082;-58
2022/07/14 09:45:32;;;;;;;5.47;0.70;;;21.90;99.90;;;;;;5063217;28;20045;-58
2022/07/14 09:48:00;;;;;;;3.90;0.70;;;21.80;99.90;;;;;;5038450;28;20076;-58
2022/07/14 09:50:57;;;;;;;3.85;0.90;;;21.90;99.90;;;;;;5043346;28;20044;-56
2022/07/14 09:53:34;;;;;;;2.92;0.80;;;21.70;99.90;;;;;;5051920;28;20495;-58
2022/07/14 09:56:06;;;;;;;3.22;0.85;;;21.40;99.90;;;;;;5041729;28;20106;-57
2022/07/14 09:59:06;;;;;;;3.22;0.50;;;21.20;99.90;;;;;;5042028;28;20060;-58
2022/07/14 10:01:32;;;;;;;2.65;0.60;;;21.10;99.90;;;;;;5042357;28;20132;-58
2022/07/14 10:03:58;;;;;;;2.75;0.73;;;21.30;99.90;;;;;;5041490;28;20121;-59
2022/07/14 10:06:27;;;;;;;3.63;0.90;;;21.30;99.90;;;;;;5050260;28;20084;-59
2022/07/14 10:08:55;;;;;;;5.75;0.98;;;21.50;99.90;;;;;;5031412;28;20045;-58
2022/07/14 10:11:22;;;;;;;3.13;0.88;;;21.30;99.90;;;;;;5022729;28;20038;-58
2022/07/14 10:13:49;;;;;;;5.60;0.70;;;21.30;99.90;;;;;;5024557;28;20503;-58
2022/07/14 10:16:15;;;;;;;3.42;0.70;;;21.50;99.90;;;;;;5061672;28;20131;-58
2022/07/14 10:18:45;;;;;;;3.90;0.63;;;21.80;99.90;;;;;;5062586;28;20080;-59
2022/07/14 10:21:10;;;;;;;4.82;0.70;;;21.70;99.90;;;;;;5062383;28;20044;-58
2022/07/14 10:23:37;;;;;;;3.22;0.70;;;21.90;99.90;;;;;;5062585;28;20102;-58
2022/07/14 10:26:05;;;;;;;4.30;0.70;;;21.80;99.90;;;;;;5062585;28;20047;-58
2022/07/14 10:28:31;;;;;;;2.90;0.70;;;22.00;99.90;;;;;;5060195;28;20049;-58
2022/07/14 10:31:02;;;;;;;2.13;0.70;;;21.90;99.90;;;;;;5054673;28;20102;-57
2022/07/14 10:34:02;;;;;;;2.38;0.50;;;21.50;99.90;;;;;;5021788;28;20080;-58
2022/07/14 10:36:44;;;;;;;5.93;0.70;;;21.30;99.90;;;;;;5022561;28;20184;-58
2022/07/14 10:39:33;;;;;;;2.70;0.60;;;22.00;99.90;;;;;;5022770;28;20049;-58
2022/07/14 10:42:03;;;;;;;4.20;0.70;;;21.90;99.90;;;;;;5022607;28;20045;-58
2022/07/14 10:44:31;;;;;;;5.70;0.73;;;22.20;99.90;;;;;;5022311;28;20041;-58
2022/07/14 10:47:08;;;;;;;3.22;0.60;;;22.30;99.90;;;;;;5037086;28;20053;-58
2022/07/14 10:50:00;;;;;;;4.22;0.80;;;22.50;99.90;;;;;;5020923;28;20104;-58
2022/07/14 10:52:26;;;;;;;1.75;0.60;;;22.00;99.90;;;;;;5021771;28;20049;-57
2022/07/14 10:55:15;;;;;;;2.92;0.57;;;22.10;99.90;;;;;;5052656;28;20803;-58
2022/07/14 10:58:03;;;;;;;3.45;0.75;;;22.00;99.90;;;;;;5021787;28;20045;-58
2022/07/14 11:00:41;;;;;;;2.47;0.68;;;21.80;99.90;;;;;;5021562;28;20053;-58
2022/07/14 11:03:27;;;;;;;1.88;0.70;;;21.60;99.90;;;;;;5020704;28;20053;-58
2022/07/14 11:06:08;;;;;;;4.75;0.73;;;21.80;99.90;;;;;;5022723;28;20042;-58
2022/07/14 11:08:41;;;;;;;1.92;0.60;;;21.90;99.90;;;;;;5028234;28;20485;-58
2022/07/14 11:11:17;;;;;;;2.23;0.77;;;21.80;99.90;;;;;;5041812;28;20053;-58
2022/07/14 11:14:01;;;;;;;2.88;0.55;;;21.60;99.90;;;;;;5049013;28;20715;-58
2022/07/14 11:16:46;;;;;;;2.55;0.60;;;21.50;99.90;;;;;;5014881;28;20053;-57
2022/07/14 11:19:31;;;;;;;3.97;0.70;;;21.70;99.90;;;;;;5020868;28;20176;-57
2022/07/14 11:22:11;;;;;;;4.53;0.80;;;21.50;99.90;;;;;;5018767;28;20077;-57
2022/07/14 11:24:46;;;;;;;2.72;0.70;;;21.50;99.90;;;;;;5001549;28;20054;-57
2022/07/14 11:27:35;;;;;;;4.20;0.60;;;21.10;99.90;;;;;;5001723;28;20042;-57
2022/07/14 11:30:28;;;;;;;6.20;0.77;;;20.80;99.90;;;;;;5000124;28;20064;-57
2022/07/14 11:33:12;;;;;;;2.20;0.60;;;20.80;99.90;;;;;;5020880;28;20052;-58
2022/07/14 11:38:40;;;;;;;5.13;0.98;;;20.90;99.90;;;;;;5020106;28;20400;-57
2022/07/14 11:41:12;;;;;;;3.42;0.73;;;21.00;99.90;;;;;;5021413;28;20457;-58
2022/07/14 11:43:43;;;;;;;3.42;0.60;;;21.00;99.90;;;;;;5021217;28;20041;-57
2022/07/14 11:46:12;;;;;;;3.88;0.82;;;21.20;99.90;;;;;;5021277;28;20049;-58
2022/07/14 11:48:48;;;;;;;4.10;0.93;;;21.30;99.90;;;;;;5020381;28;20060;-58
2022/07/14 11:51:29;;;;;;;3.92;0.85;;;21.30;99.90;;;;;;5020865;28;20049;-58
2022/07/14 11:54:04;;;;;;;4.30;0.70;;;21.70;99.90;;;;;;5020271;28;20420;-58
2022/07/14 11:56:30;;;;;;;2.97;0.70;;;22.00;99.90;;;;;;5021227;28;20080;-58
2022/07/14 11:59:05;;;;;;;2.75;0.60;;;22.20;99.90;;;;;;5020467;28;20044;-57
2022/07/14 12:01:35;;;;;;;4.53;0.80;;;22.50;99.90;;;;;;5020913;28;20045;-58
2022/07/14 12:04:14;;;;;;;3.65;0.60;;;22.80;99.90;;;;;;5019970;28;20046;-57
2022/07/14 12:06:47;;;;;;;3.15;0.60;;;23.00;99.90;;;;;;5007021;28;20058;-57
2022/07/14 12:09:14;;;;;;;2.42;0.65;;;23.20;99.90;;;;;;4981907;28;20046;-57
2022/07/14 12:11:51;;;;;;;6.13;0.77;;;23.00;99.90;;;;;;4981362;28;20056;-57
2022/07/14 12:14:18;;;;;;;4.97;0.73;;;22.80;99.90;;;;;;4986866;28;20061;-58
2022/07/14 12:16:45;;;;;;;2.72;0.70;;;23.10;99.90;;;;;;5021432;28;20121;-57
2022/07/14 12:19:12;;;;;;;2.33;0.70;;;23.00;99.90;;;;;;5020056;28;20824;-57
2022/07/14 12:21:38;;;;;;;2.15;0.75;;;22.40;99.90;;;;;;5021125;28;20137;-57
2022/07/14 12:24:11;;;;;;;2.42;0.60;;;22.30;99.90;;;;;;5020515;28;20049;-58
2022/07/14 12:26:37;;;;;;;7.32;0.88;;;22.00;99.90;;;;;;5020128;28;20503;-58
2022/07/14 12:29:05;;;;;;;2.95;0.70;;;22.00;99.90;;;;;;5017930;28;20064;-58
2022/07/14 12:31:38;;;;;;;3.88;1.00;;;22.20;99.90;;;;;;5038189;28;20617;-58
2022/07/14 12:34:03;;;;;;;1.70;0.63;;;22.40;99.90;;;;;;5037413;28;20095;-58
2022/07/14 12:36:30;;;;;;;3.90;0.80;;;23.00;99.90;;;;;;5051667;28;20045;-58
2022/07/14 12:38:59;;;;;;;4.35;0.90;;;22.90;99.90;;;;;;5061422;28;20048;-58
2022/07/14 12:41:26;;;;;;;1.83;0.47;;;22.50;99.90;;;;;;5063870;28;20075;-57
2022/07/14 12:43:52;;;;;;;4.55;0.60;;;22.30;99.90;;;;;;5061763;28;20112;-58
2022/07/14 12:46:20;;;;;;;4.63;0.90;;;22.30;99.90;;;;;;5048912;28;20438;-58
2022/07/14 12:48:49;;;;;;;5.22;0.93;;;22.10;99.90;;;;;;5054247;28;20044;-58
2022/07/14 12:51:20;;;;;;;2.58;0.85;;;21.80;99.90;;;;;;5053653;28;20032;-59
2022/07/14 12:54:01;;;;;;;4.60;0.68;;;21.50;99.90;;;;;;5053028;28;20044;-58
2022/07/14 12:56:29;;;;;;;2.08;0.70;;;21.30;99.90;;;;;;5052482;28;20055;-58
2022/07/14 12:58:58;;;;;;;4.80;0.88;;;21.50;99.90;;;;;;5051588;28;20103;-58
2022/07/14 13:01:25;;;;;;;3.33;0.85;;;20.90;99.90;;;;;;5052832;28;20084;-58
2022/07/14 13:04:02;;;;;;;3.92;0.70;;;21.10;99.90;;;;;;5053601;28;20072;-58